KTIK

Tinker AFB Airport

Oklahoma City, Oklahoma, USA
METAR KTIK 191056Z AUTO 18008KT 10SM CLR 22/19 A2994 RMK AO2 SLPNO T02190194
Observed Flight Rules
Sep-19 @ 10:56 UTC (14 minutes ago) Visual Flight Rules
Wind Visibility Clouds
180° at 8 knots 10 miles
  • Clear skies
Temperatures Readings
Current 22°C / 72°F
Dewpoint 19°C / 66°F
Humidity 83%
Altimeter 29.94" Hg
Pressure 1014 hPa
Elevation 394
METAR KTIK 191056Z AUTO 18008KT 10SM CLR 22/19 A2994 RMK AO2 SLPNO T02190194
Observed Flight Rules
Sep-19 @ 10:56 UTC
(14 minutes ago)
VFR
Wind Visibility
180° at 8 knots 10 miles
Clouds
  • Clear skies
Temperature Dewpoint
22°C / 72°F 19°C / 66°F
Humidity Altimeter Pressure
83% 29.94" Hg 1014 hPa